Skip Navigation Links Skip Navigation Links

Current Weather

Marshalltown Muni, Marshalltown, Iowa

For information only: do not use for flight planning or navigation.
Latest weather
Observation time Tuesday, October 19, 2021 3:53 AM CDT
Local time Tuesday, October 19, 2021 4:22 AM CDT
Flight conditions Visual Meteorological Conditions
Winds
Wind direction South-Southeast (150°)
Wind speed 8 mph
Visibility 10 mi.
Sky condition
Ceiling unlimited
Sky clear
Temperature 51°F
Dewpoint 44°F
Altimeter 30.00 in.Hg
Pressure change last 3 hours0.02 in.Hg
Pressure falling more quickly
Derived measurements
Relative humidity 77%
Density altitude 500 ft.
Sea-level pressure 29.99 in.Hg
Remarks
Fully automated report.
Automated weather observing station with precipitation discriminator.
METAR KMIW 190853Z AUTO 15007KT 10SM CLR 11/07 A3000 RMK AO2 SLP156 T01060067 58006

Settings

Location code

InnerDrive.Weather 4.0.6770.0 Release CLR 4.0.30319.42000
Copyright ©2018 Inner Drive Technology. All rights reserved. Portions Copyright ©1986-2018 David Braverman.

Find weather

Site navigation


Skip Navigation Links

Place info

Page info

PayPal - The safer, easier way to pay online!

Return home.

Copyright ©2021 Inner Drive Technology. Purveyors of fine, hand-crafted computer software. Page printed 2021-10-19T09:22:54 UTC.